Hanna, Illinois
Current Conditions -  °F | °C
As of 4:52 PM on Saturday 25 Oct 2014 (Local Time) from KMLI Reporting Station
Clear Clear  
Wind Chill: 70°   Ceiling: Unl
Heat Index: 70°   Visibility: 10mi
Dew Point: 35°   Wind: 9mph
Humidity: 28%   Direction: 300°WNW
Pressure: 29.99"   Gusts: NA
Location:  41.4828°N, 90.1801°W
Report Text: KMLI 252152Z 30008KT 10SM CLR 21/02 A2999 RMK AO2 SLP155 T02110017 $
Loading
Personal Weather Stations






























Interactive Weather Map
Tropical Storm Tracking
New forecast layout! Learn more

10-Day Weather Forecast

Advertisements
Track Severe Weather on mobile